Time;durP1;ratioP1;P1;durP2;ratioP2;P2;SDS_P1;SDS_P2;PMS_P1;PMS_P2;Temp;Humidity;BMP_temperature;BMP_pressure;BME280_temperature;BME280_humidity;BME280_pressure;Samples;Min_cycle;Max_cycle;Signal;HPM_P1;HPM_P2
2021/01/21 00:00:30;;;;;;;0.70;0.70;;;;;;;4.22;57.14;95434.03;299397;222;63009;-57
2021/01/21 00:05:31;;;;;;;0.70;0.70;;;;;;;4.06;58.47;95448.72;299397;215;63005;-58
2021/01/21 00:10:32;;;;;;;0.70;0.70;;;;;;;3.87;59.25;95458.59;299396;232;63009;-58
2021/01/21 00:15:33;;;;;;;0.70;0.70;;;;;;;3.69;59.62;95458.25;299396;222;63005;-56
2021/01/21 00:20:34;;;;;;;0.77;0.77;;;;;;;3.66;60.23;95490.22;299396;267;63009;-58
2021/01/21 00:25:36;;;;;;;0.70;0.70;;;;;;;3.74;59.12;95481.56;299395;197;64009;-58
2021/01/21 00:30:37;;;;;;;0.80;0.80;;;;;;;3.72;59.93;95481.03;299396;226;63009;-59
2021/01/21 00:35:38;;;;;;;0.70;0.70;;;;;;;3.63;60.03;95469.31;299396;318;63005;-54
2021/01/21 00:40:40;;;;;;;0.70;0.70;;;;;;;3.80;58.97;95458.16;299396;212;63009;-57
2021/01/21 00:45:41;;;;;;;0.70;0.70;;;;;;;3.80;58.32;95466.22;299396;197;63005;-59
2021/01/21 00:50:42;;;;;;;0.70;0.70;;;;;;;3.86;57.85;95486.50;299397;228;63009;-56
2021/01/21 00:55:45;;;;;;;0.70;0.70;;;;;;;4.02;56.96;95440.44;299397;274;63004;-57
2021/01/21 01:00:46;;;;;;;0.70;0.70;;;;;;;4.10;56.36;95443.59;299395;231;63018;-57
2021/01/21 01:05:46;;;;;;;0.70;0.70;;;;;;;4.18;56.22;95437.56;299395;317;63005;-57
2021/01/21 01:10:47;;;;;;;0.70;0.70;;;;;;;4.19;56.57;95441.84;299395;210;63009;-54
2021/01/21 01:15:49;;;;;;;0.70;0.70;;;;;;;4.59;53.22;95427.87;299395;231;63005;-56
2021/01/21 01:20:50;;;;;;;0.70;0.70;;;;;;;4.68;53.13;95420.78;299395;273;63009;-57
2021/01/21 01:25:53;;;;;;;0.70;0.70;;;;;;;4.59;54.11;95414.44;299395;196;63004;-57
2021/01/21 01:30:55;;;;;;;0.70;0.70;;;;;;;4.48;53.91;95410.34;299395;215;63009;-58
2021/01/21 01:35:56;;;;;;;0.70;0.70;;;;;;;4.47;54.54;95408.75;299395;246;63005;-57
2021/01/21 01:40:57;;;;;;;0.70;0.70;;;;;;;4.53;54.27;95406.75;299395;214;63008;-56
2021/01/21 01:45:58;;;;;;;0.70;0.70;;;;;;;4.55;53.94;95394.62;299395;222;63004;-57
2021/01/21 01:51:00;;;;;;;0.70;0.70;;;;;;;4.53;54.13;95412.94;299395;293;63009;-58
2021/01/21 01:56:02;;;;;;;0.70;0.70;;;;;;;4.74;52.78;95396.53;299395;228;63004;-55
2021/01/21 02:01:03;;;;;;;0.98;0.98;;;;;;;4.95;52.23;95379.78;299395;246;63009;-59
2021/01/21 02:06:05;;;;;;;0.70;0.70;;;;;;;5.05;52.18;95387.69;299394;221;64005;-57
2021/01/21 02:11:37;;;;;;;0.70;0.70;;;;;;;5.31;49.87;95371.09;299395;289;63009;-58
2021/01/21 02:17:04;;;;;;;0.70;0.70;;;;;;;5.50;49.94;95365.66;299395;228;63004;-57
2021/01/21 02:22:58;;;;;;;0.70;0.70;;;;;;;5.45;50.44;95355.78;299395;199;63009;-57
2021/01/21 02:28:31;;;;;;;0.70;0.70;;;;;;;5.35;52.10;95359.47;299395;248;63009;-57
2021/01/21 02:33:57;;;;;;;0.70;0.70;;;;;;;5.04;53.68;95374.53;299395;210;63004;-57
2021/01/21 02:39:01;;;;;;;0.70;0.70;;;;;;;4.70;55.23;95375.59;299395;208;63004;-57
2021/01/21 02:44:02;;;;;;;0.70;0.70;;;;;;;4.69;54.82;95357.91;299478;216;126009;-57
2021/01/21 02:49:04;;;;;;;0.70;0.70;;;;;;;4.70;55.27;95340.69;299395;225;63005;-57
2021/01/21 02:54:25;;;;;;;0.70;0.70;;;;;;;5.09;52.24;95336.81;299395;215;63009;-58
2021/01/21 02:59:31;;;;;;;0.70;0.70;;;;;;;5.26;52.29;95360.44;299395;219;63005;-57
2021/01/21 03:04:33;;;;;;;0.70;0.70;;;;;;;5.55;48.78;95338.66;299395;231;63009;-57
2021/01/21 03:09:35;;;;;;;0.70;0.70;;;;;;;5.99;47.51;95330.78;299395;202;63004;-57
2021/01/21 03:14:40;;;;;;;0.70;0.70;;;;;;;6.13;47.23;95303.84;299395;238;63009;-57
2021/01/21 03:19:43;;;;;;;0.70;0.70;;;;;;;6.36;45.94;95285.81;299417;199;63012;-57
2021/01/21 03:24:44;;;;;;;0.70;0.70;;;;;;;6.42;45.53;95298.06;299395;316;63009;-54
2021/01/21 03:29:44;;;;;;;0.70;0.70;;;;;;;6.35;45.26;95305.78;299395;268;63005;-55
2021/01/21 03:34:46;;;;;;;0.70;0.70;;;;;;;6.33;46.12;95313.34;299395;203;63009;-56
2021/01/21 03:39:48;;;;;;;0.65;0.65;;;;;;;6.23;46.69;95303.63;299395;374;63004;-59
2021/01/21 03:44:49;;;;;;;0.70;0.70;;;;;;;6.29;46.35;95317.75;299395;220;63009;-56
2021/01/21 03:49:50;;;;;;;0.70;0.70;;;;;;;6.17;46.96;95304.03;299395;285;63005;-59
2021/01/21 03:54:54;;;;;;;0.60;0.60;;;;;;;6.15;46.57;95295.47;299395;235;63009;-57
2021/01/21 03:59:56;;;;;;;0.70;0.70;;;;;;;6.11;47.24;95283.69;299417;326;63005;-56
2021/01/21 04:04:56;;;;;;;0.70;0.70;;;;;;;6.03;47.75;95294.09;299395;221;63009;-59
2021/01/21 04:09:57;;;;;;;0.70;0.70;;;;;;;5.97;48.31;95297.97;299395;199;63004;-58
2021/01/21 04:14:58;;;;;;;0.60;0.60;;;;;;;5.96;47.37;95282.13;299395;271;63009;-53
2021/01/21 04:19:59;;;;;;;0.70;0.70;;;;;;;5.90;47.86;95289.50;299395;210;63005;-58
2021/01/21 04:25:00;;;;;;;0.60;0.60;;;;;;;5.96;47.67;95288.31;299395;199;63008;-59
2021/01/21 04:30:02;;;;;;;0.70;0.70;;;;;;;6.05;47.25;95297.28;299395;238;63011;-57
2021/01/21 04:35:05;;;;;;;0.60;0.60;;;;;;;5.98;47.81;95307.66;299395;288;63019;-57
2021/01/21 04:40:08;;;;;;;0.60;0.60;;;;;;;6.04;47.72;95314.53;299395;208;63004;-58
2021/01/21 04:45:10;;;;;;;0.70;0.70;;;;;;;6.32;46.39;95301.78;299395;233;63009;-57
2021/01/21 04:50:13;;;;;;;0.62;0.62;;;;;;;6.33;47.24;95281.03;299395;219;63005;-57
2021/01/21 04:55:30;;;;;;;0.60;0.60;;;;;;;6.45;45.87;95283.19;299395;212;63008;-59
2021/01/21 05:00:35;;;;;;;0.60;0.60;;;;;;;6.49;46.23;95290.37;299395;242;63004;-57
2021/01/21 05:05:37;;;;;;;0.70;0.70;;;;;;;6.65;45.67;95288.88;299395;240;63009;-58
2021/01/21 05:10:39;;;;;;;0.65;0.65;;;;;;;6.75;45.38;95282.44;299395;242;63004;-58
2021/01/21 05:15:41;;;;;;;0.60;0.60;;;;;;;6.85;44.70;95292.19;299395;198;63009;-59
2021/01/21 05:20:45;;;;;;;0.60;0.60;;;;;;;6.91;44.62;95290.97;299395;254;63005;-57
2021/01/21 05:25:46;;;;;;;0.70;0.70;;;;;;;6.87;45.10;95285.41;299417;261;63009;-58
2021/01/21 05:30:48;;;;;;;0.60;0.60;;;;;;;6.81;45.94;95283.13;299395;258;63004;-56
2021/01/21 05:35:54;;;;;;;0.68;0.68;;;;;;;6.76;45.73;95288.63;299395;202;63019;-57
2021/01/21 05:40:55;;;;;;;0.70;0.70;;;;;;;6.72;46.07;95291.94;299395;217;63005;-58
2021/01/21 05:45:56;;;;;;;0.60;0.60;;;;;;;6.81;45.82;95302.78;299395;234;63009;-58
2021/01/21 05:50:57;;;;;;;0.60;0.60;;;;;;;6.96;45.25;95296.22;299395;254;63011;-61
2021/01/21 05:55:59;;;;;;;0.60;0.60;;;;;;;6.88;45.44;95299.66;299395;253;63009;-59
2021/01/21 06:01:00;;;;;;;0.60;0.60;;;;;;;6.97;44.69;95295.09;299395;220;63004;-58
2021/01/21 06:06:10;;;;;;;0.70;0.70;;;;;;;7.08;45.06;95291.06;299395;214;63009;-58
2021/01/21 06:11:12;;;;;;;0.60;0.60;;;;;;;7.09;44.50;95298.03;299395;282;63005;-57
2021/01/21 06:16:21;;;;;;;0.70;0.70;;;;;;;7.04;45.03;95300.88;299395;216;63009;-58
2021/01/21 06:21:27;;;;;;;0.60;0.60;;;;;;;7.08;44.55;95296.44;299395;216;63005;-57
2021/01/21 06:26:38;;;;;;;0.60;0.60;;;;;;;7.14;44.61;95300.59;299395;219;63009;-58
2021/01/21 06:31:42;;;;;;;0.60;0.60;;;;;;;7.04;44.54;95298.16;299395;262;63004;-57
2021/01/21 06:36:47;;;;;;;0.60;0.60;;;;;;;7.10;44.64;95288.84;299395;229;63009;-57
2021/01/21 06:41:51;;;;;;;0.60;0.60;;;;;;;7.14;44.55;95294.41;299395;219;63005;-57
2021/01/21 06:46:54;;;;;;;0.60;0.60;;;;;;;7.25;44.41;95296.56;299417;283;63019;-63
2021/01/21 06:51:56;;;;;;;0.60;0.60;;;;;;;7.12;45.38;95307.41;299395;214;63004;-71
2021/01/21 06:56:57;;;;;;;0.60;0.60;;;;;;;7.27;45.53;95320.53;299395;259;63009;-60
2021/01/21 07:01:59;;;;;;;0.70;0.70;;;;;;;7.45;45.28;95311.38;299394;207;64004;-60
2021/01/21 07:07:06;;;;;;;0.60;0.60;;;;;;;7.48;46.57;95304.56;299395;206;63009;-58
2021/01/21 07:12:14;;;;;;;0.60;0.60;;;;;;;7.51;48.55;95306.66;299395;205;63005;-58
2021/01/21 07:17:16;;;;;;;0.60;0.60;;;;;;;7.50;50.19;95316.66;299395;228;63008;-59
2021/01/21 07:22:20;;;;;;;0.60;0.60;;;;;;;7.60;51.08;95324.47;299395;196;63004;-58
2021/01/21 07:27:24;;;;;;;0.60;0.60;;;;;;;7.49;52.87;95322.34;299417;223;63009;-59
2021/01/21 07:32:28;;;;;;;0.60;0.60;;;;;;;7.44;53.88;95320.59;299377;219;125004;-58
2021/01/21 07:37:45;;;;;;;0.60;0.60;;;;;;;7.48;53.92;95320.75;299417;206;63009;-61
2021/01/21 07:42:50;;;;;;;0.60;0.60;;;;;;;7.44;54.68;95328.69;299395;260;63005;-58
2021/01/21 07:47:52;;;;;;;0.60;0.60;;;;;;;7.55;54.60;95321.13;299395;307;63018;-58
2021/01/21 07:52:58;;;;;;;0.60;0.60;;;;;;;7.66;53.88;95323.22;299395;211;63004;-59
2021/01/21 07:58:36;;;;;;;0.60;0.60;;;;;;;7.54;54.59;95316.81;299395;255;63009;-60
2021/01/21 08:03:46;;;;;;;0.60;0.60;;;;;;;7.50;54.12;95323.94;299395;216;63005;-58
2021/01/21 08:08:50;;;;;;;0.60;0.60;;;;;;;7.63;54.27;95317.62;299395;217;63008;-56
2021/01/21 08:13:58;;;;;;;0.60;0.60;;;;;;;7.60;54.77;95329.09;299395;199;63004;-58
2021/01/21 08:19:00;;;;;;;0.60;0.60;;;;;;;7.66;54.90;95323.22;299395;218;63026;-59
2021/01/21 08:24:06;;;;;;;0.60;0.60;;;;;;;7.82;54.60;95320.91;299395;286;63005;-56
2021/01/21 08:29:15;;;;;;;0.60;0.60;;;;;;;7.86;54.70;95321.06;299395;217;63009;-60
2021/01/21 08:34:23;;;;;;;0.60;0.60;;;;;;;7.94;55.00;95323.81;299395;296;63005;-59
2021/01/21 08:39:24;;;;;;;0.60;0.60;;;;;;;7.95;55.09;95325.38;299395;200;63009;-59
2021/01/21 08:44:25;;;;;;;0.60;0.60;;;;;;;8.00;55.28;95327.91;299395;206;63009;-59
2021/01/21 08:49:28;;;;;;;0.60;0.60;;;;;;;8.08;55.62;95335.25;299395;202;63009;-58
2021/01/21 08:54:30;;;;;;;0.60;0.60;;;;;;;8.02;55.25;95360.81;299395;246;63005;-58
2021/01/21 08:59:32;;;;;;;0.60;0.60;;;;;;;7.98;55.91;95354.44;299395;245;63014;-57
2021/01/21 09:04:35;;;;;;;0.60;0.60;;;;;;;7.99;55.66;95363.34;299395;281;63005;-59
2021/01/21 09:09:40;;;;;;;0.60;0.60;;;;;;;8.15;55.22;95355.62;299395;246;63009;-59
2021/01/21 09:14:58;;;;;;;0.60;0.60;;;;;;;8.37;54.61;95353.63;299417;227;63004;-59
2021/01/21 09:20:00;;;;;;;0.60;0.60;;;;;;;8.54;54.46;95355.56;299395;237;63009;-58
2021/01/21 09:25:07;;;;;;;0.60;0.60;;;;;;;8.55;54.92;95369.88;299395;312;63005;-58
2021/01/21 09:30:15;;;;;;;0.60;0.60;;;;;;;8.66;54.23;95353.00;299395;273;63008;-62
2021/01/21 09:35:20;;;;;;;0.60;0.60;;;;;;;8.59;54.95;95360.81;299395;218;63004;-59
2021/01/21 09:40:26;;;;;;;0.60;0.60;;;;;;;8.64;54.76;95370.69;299395;227;63009;-58
2021/01/21 09:45:28;;;;;;;0.60;0.60;;;;;;;8.43;55.30;95367.78;299395;237;63004;-58
2021/01/21 09:50:29;;;;;;;0.60;0.60;;;;;;;8.48;55.73;95369.53;299395;202;63009;-58
2021/01/21 09:55:30;;;;;;;0.60;0.60;;;;;;;8.33;56.24;95368.88;299395;303;63005;-60
2021/01/21 10:00:34;;;;;;;0.70;0.70;;;;;;;8.51;56.20;95374.31;299417;213;63008;-55
2021/01/21 10:05:35;;;;;;;0.60;0.60;;;;;;;8.61;56.33;95369.41;299395;255;63004;-57
2021/01/21 10:10:42;;;;;;;0.60;0.60;;;;;;;8.72;55.84;95367.94;299395;241;63009;-58
2021/01/21 10:15:44;;;;;;;0.60;0.60;;;;;;;8.77;56.00;95372.41;299395;219;63005;-57
2021/01/21 10:20:45;;;;;;;0.60;0.60;;;;;;;8.73;56.23;95372.25;299395;262;63009;-57
2021/01/21 10:25:46;;;;;;;0.60;0.60;;;;;;;8.85;55.97;95368.91;299395;214;63005;-57
2021/01/21 10:30:51;;;;;;;0.60;0.60;;;;;;;9.12;55.26;95361.56;299395;207;63009;-58
2021/01/21 10:35:52;;;;;;;0.60;0.60;;;;;;;9.33;54.65;95363.31;299417;298;63004;-60
2021/01/21 10:40:52;;;;;;;0.60;0.60;;;;;;;9.43;54.32;95372.97;299395;248;63020;-57
2021/01/21 10:45:53;;;;;;;0.60;0.60;;;;;;;9.44;54.49;95384.59;299395;205;63005;-55
2021/01/21 10:50:54;;;;;;;0.60;0.60;;;;;;;9.47;54.63;95392.09;299395;295;63009;-59
2021/01/21 10:55:55;;;;;;;0.60;0.60;;;;;;;9.35;56.59;95388.16;299395;297;63005;-57
2021/01/21 11:00:56;;;;;;;0.60;0.60;;;;;;;9.34;57.57;95407.41;299395;238;63009;-56
2021/01/21 11:06:00;;;;;;;0.60;0.60;;;;;;;9.39;56.56;95399.91;299394;197;64009;-58
2021/01/21 11:11:02;;;;;;;0.60;0.60;;;;;;;9.45;56.39;95403.22;299417;221;63009;-54
2021/01/21 11:16:03;;;;;;;0.60;0.60;;;;;;;9.52;57.30;95389.22;299395;374;63005;-55
2021/01/21 11:21:05;;;;;;;0.88;0.88;;;;;;;9.47;56.95;95389.37;299395;196;63009;-55
2021/01/21 11:26:09;;;;;;;0.60;0.60;;;;;;;9.27;57.63;95396.28;299395;204;63005;-56
2021/01/21 11:31:12;;;;;;;0.60;0.60;;;;;;;9.28;56.98;95390.53;299417;334;63009;-57
2021/01/21 11:36:13;;;;;;;0.60;0.60;;;;;;;9.31;56.98;95392.59;299395;218;63004;-57
2021/01/21 11:41:14;;;;;;;0.60;0.60;;;;;;;9.19;57.50;95389.75;299395;212;63009;-58
2021/01/21 11:46:15;;;;;;;0.60;0.60;;;;;;;9.25;56.33;95382.25;299396;267;63010;-56
2021/01/21 11:51:18;;;;;;;0.60;0.60;;;;;;;9.28;56.53;95366.19;299396;292;63009;-56
2021/01/21 11:56:22;;;;;;;0.60;0.60;;;;;;;9.32;55.98;95372.53;299396;234;63005;-57
2021/01/21 12:01:23;;;;;;;0.60;0.60;;;;;;;9.39;56.03;95364.69;299418;199;63009;-59
2021/01/21 12:06:23;;;;;;;0.60;0.60;;;;;;;9.43;55.86;95372.19;299374;202;63004;-57
2021/01/21 12:11:24;;;;;;;0.50;0.50;;;;;;;9.45;55.94;95364.53;299396;258;63009;-60
2021/01/21 12:16:29;;;;;;;0.60;0.60;;;;;;;9.53;55.69;95361.03;299396;197;63005;-57
2021/01/21 12:21:34;;;;;;;0.57;0.57;;;;;;;9.61;55.17;95357.50;299418;360;63008;-57
2021/01/21 12:26:35;;;;;;;0.60;0.60;;;;;;;9.66;55.62;95354.63;299396;202;63004;-57
2021/01/21 12:31:37;;;;;;;0.60;0.60;;;;;;;9.87;54.61;95331.09;299397;230;63009;-54
2021/01/21 12:36:38;;;;;;;0.60;0.60;;;;;;;9.94;55.06;95349.56;299397;227;63004;-57
2021/01/21 12:41:40;;;;;;;0.60;0.60;;;;;;;9.97;54.91;95341.56;299396;216;63009;-57
2021/01/21 12:46:41;;;;;;;0.60;0.60;;;;;;;9.96;55.22;95331.84;299396;289;63005;-56
2021/01/21 12:51:42;;;;;;;0.60;0.60;;;;;;;9.79;56.55;95348.19;299396;210;63008;-57
2021/01/21 12:56:43;;;;;;;0.50;0.50;;;;;;;9.91;56.14;95340.16;299396;211;63004;-56
2021/01/21 13:01:44;;;;;;;0.60;0.60;;;;;;;9.88;56.55;95335.41;299396;197;63029;-57
2021/01/21 13:06:45;;;;;;;0.60;0.60;;;;;;;9.85;56.01;95325.22;299397;208;63004;-56
2021/01/21 13:11:46;;;;;;;0.60;0.60;;;;;;;9.84;55.78;95336.37;299397;214;63009;-56
2021/01/21 13:16:48;;;;;;;0.60;0.60;;;;;;;9.80;56.39;95338.94;299396;202;63005;-57
2021/01/21 13:21:50;;;;;;;0.60;0.60;;;;;;;9.72;56.18;95345.16;299396;258;63008;-57
2021/01/21 13:26:52;;;;;;;0.60;0.60;;;;;;;9.71;56.55;95351.72;299395;244;64004;-59
2021/01/21 13:31:53;;;;;;;0.60;0.60;;;;;;;9.54;57.13;95352.56;299396;203;63021;-59
2021/01/21 13:36:54;;;;;;;0.60;0.60;;;;;;;9.49;56.87;95343.81;299395;215;63005;-61
2021/01/21 13:41:55;;;;;;;0.60;0.60;;;;;;;9.44;57.57;95352.13;299395;220;63009;-57
2021/01/21 13:46:56;;;;;;;0.60;0.60;;;;;;;9.24;58.63;95354.41;299395;203;63005;-57
2021/01/21 13:51:57;;;;;;;0.60;0.60;;;;;;;9.38;58.83;95355.00;299395;242;63009;-61
2021/01/21 13:56:59;;;;;;;0.60;0.60;;;;;;;9.55;59.03;95369.63;299395;217;63004;-57
2021/01/21 14:02:00;;;;;;;0.60;0.60;;;;;;;9.53;58.78;95352.91;299395;200;63009;-59
2021/01/21 14:07:01;;;;;;;0.60;0.60;;;;;;;9.53;59.60;95358.31;299395;221;63005;-67
2021/01/21 14:12:02;;;;;;;0.60;0.60;;;;;;;9.44;60.01;95360.25;299395;203;63009;-57
2021/01/21 14:17:03;;;;;;;0.60;0.60;;;;;;;9.36;60.18;95356.44;299395;313;63005;-58
2021/01/21 14:22:04;;;;;;;0.60;0.60;;;;;;;9.26;61.00;95346.75;299395;239;63009;-57
2021/01/21 14:27:06;;;;;;;0.60;0.60;;;;;;;9.25;60.85;95350.59;299395;219;63004;-54
2021/01/21 14:32:07;;;;;;;0.60;0.60;;;;;;;9.25;61.65;95358.69;299395;270;63009;-57
2021/01/21 14:37:08;;;;;;;0.60;0.60;;;;;;;9.13;62.31;95353.13;299395;211;63005;-55
2021/01/21 14:42:13;;;;;;;0.60;0.60;;;;;;;9.09;62.94;95341.38;299395;219;63018;-56
2021/01/21 14:47:14;;;;;;;0.60;0.60;;;;;;;8.98;63.61;95349.03;299417;196;63010;-55
2021/01/21 14:52:15;;;;;;;0.60;0.60;;;;;;;8.91;64.42;95347.91;299395;215;63009;-55
2021/01/21 14:57:16;;;;;;;0.60;0.60;;;;;;;8.91;63.81;95351.44;299395;203;63004;-63
2021/01/21 15:02:17;;;;;;;0.60;0.60;;;;;;;9.00;63.73;95354.94;299395;196;63009;-57
2021/01/21 15:07:18;;;;;;;0.60;0.60;;;;;;;8.90;63.58;95349.03;299395;203;63005;-57
2021/01/21 15:12:19;;;;;;;0.57;0.57;;;;;;;8.82;64.07;95347.12;299395;302;63009;-63
2021/01/21 15:17:20;;;;;;;0.60;0.60;;;;;;;8.77;63.79;95349.97;299395;235;63009;-59
2021/01/21 15:22:21;;;;;;;0.60;0.60;;;;;;;8.77;63.74;95355.38;299395;204;63009;-54
2021/01/21 15:27:22;;;;;;;0.60;0.60;;;;;;;8.68;64.16;95363.50;299395;255;63004;-55
2021/01/21 15:32:24;;;;;;;0.60;0.60;;;;;;;8.65;63.82;95359.53;299395;202;63009;-59
2021/01/21 15:37:25;;;;;;;0.60;0.60;;;;;;;8.58;64.32;95329.47;299395;258;63005;-57
2021/01/21 15:42:26;;;;;;;0.60;0.60;;;;;;;8.54;64.04;95325.03;299395;238;63008;-57
2021/01/21 15:47:27;;;;;;;0.60;0.60;;;;;;;8.47;64.30;95314.69;299395;200;63004;-57
2021/01/21 15:52:29;;;;;;;0.60;0.60;;;;;;;8.49;64.21;95320.56;299395;206;63009;-57
2021/01/21 15:57:33;;;;;;;0.60;0.60;;;;;;;8.49;63.99;95328.66;299395;278;63004;-56
2021/01/21 16:02:34;;;;;;;0.60;0.60;;;;;;;8.56;63.79;95326.28;299417;281;63009;-58
2021/01/21 16:07:38;;;;;;;0.60;0.60;;;;;;;8.45;64.12;95327.72;299395;227;63005;-58
2021/01/21 16:12:40;;;;;;;0.60;0.60;;;;;;;8.44;64.42;95322.63;299417;221;63008;-58
2021/01/21 16:17:41;;;;;;;0.60;0.60;;;;;;;8.37;64.29;95312.28;299395;251;63004;-58
2021/01/21 16:22:44;;;;;;;0.60;0.60;;;;;;;8.31;64.71;95308.13;299395;224;63009;-55
2021/01/21 16:27:45;;;;;;;0.60;0.60;;;;;;;8.37;64.13;95307.66;299394;231;64008;-57
2021/01/21 16:32:46;;;;;;;0.60;0.60;;;;;;;8.25;64.88;95290.47;299395;210;63020;-56
2021/01/21 16:37:48;;;;;;;0.60;0.60;;;;;;;8.20;64.86;95298.72;299395;217;63005;-56
2021/01/21 16:42:51;;;;;;;0.60;0.60;;;;;;;8.12;65.25;95294.09;299395;203;63009;-55
2021/01/21 16:47:52;;;;;;;0.60;0.60;;;;;;;8.17;65.12;95293.97;299395;202;63004;-57
2021/01/21 16:52:54;;;;;;;0.60;0.60;;;;;;;8.08;65.61;95281.22;299395;210;63009;-59
2021/01/21 16:57:55;;;;;;;0.60;0.60;;;;;;;7.89;66.34;95286.12;299395;202;63005;-59
2021/01/21 17:02:56;;;;;;;0.60;0.60;;;;;;;7.77;66.88;95283.22;299395;232;63009;-59
2021/01/21 17:08:00;;;;;;;0.60;0.60;;;;;;;7.78;66.80;95287.53;299395;231;63005;-59
2021/01/21 17:13:02;;;;;;;0.60;0.60;;;;;;;7.90;66.82;95284.22;299439;265;63009;-59
2021/01/21 17:18:05;;;;;;;0.60;0.60;;;;;;;7.89;66.80;95269.94;299395;294;63004;-63
2021/01/21 17:23:06;;;;;;;0.60;0.60;;;;;;;7.92;66.86;95265.81;299395;216;63009;-63
2021/01/21 17:28:07;;;;;;;0.60;0.60;;;;;;;7.87;67.45;95258.66;299395;280;63005;-61
2021/01/21 17:33:07;;;;;;;0.60;0.60;;;;;;;7.87;67.53;95255.94;299395;202;63009;-62
2021/01/21 17:38:08;;;;;;;0.68;0.68;;;;;;;7.90;67.70;95262.63;299395;198;63010;-60
2021/01/21 17:43:09;;;;;;;0.60;0.60;;;;;;;7.83;67.95;95262.28;299395;229;63009;-61
2021/01/21 17:48:10;;;;;;;0.60;0.60;;;;;;;7.88;67.69;95249.44;299395;219;63004;-60
2021/01/21 17:53:12;;;;;;;0.70;0.70;;;;;;;7.92;67.40;95234.19;299395;220;63009;-61
2021/01/21 17:58:13;;;;;;;0.60;0.60;;;;;;;7.98;66.78;95222.09;299395;220;63005;-60
2021/01/21 18:03:14;;;;;;;0.60;0.60;;;;;;;7.94;66.72;95215.78;299395;204;63009;-60
2021/01/21 18:08:17;;;;;;;0.60;0.60;;;;;;;8.03;65.79;95203.03;299395;243;63005;-61
2021/01/21 18:13:18;;;;;;;0.60;0.60;;;;;;;7.94;66.34;95202.25;299395;219;63009;-59
2021/01/21 18:18:19;;;;;;;0.60;0.60;;;;;;;8.08;65.11;95189.38;299395;212;63004;-57
2021/01/21 18:23:22;;;;;;;0.60;0.60;;;;;;;8.16;64.45;95179.69;299395;202;63009;-60
2021/01/21 18:28:23;;;;;;;0.60;0.60;;;;;;;8.13;64.53;95184.94;299395;211;63005;-59
2021/01/21 18:33:25;;;;;;;0.70;0.70;;;;;;;8.13;64.39;95180.34;299395;248;63009;-58
2021/01/21 18:38:26;;;;;;;0.60;0.60;;;;;;;8.15;64.12;95193.53;299395;219;63005;-56
2021/01/21 18:43:29;;;;;;;0.60;0.60;;;;;;;8.16;63.91;95178.91;299395;212;63009;-57
2021/01/21 18:48:34;;;;;;;0.62;0.62;;;;;;;8.24;63.13;95153.78;299395;253;63011;-56
2021/01/21 18:53:35;;;;;;;0.60;0.60;;;;;;;8.24;63.08;95157.28;299417;228;63009;-64
2021/01/21 18:58:36;;;;;;;0.60;0.60;;;;;;;8.19;62.81;95148.53;299395;216;63005;-59
2021/01/21 19:03:37;;;;;;;0.60;0.60;;;;;;;8.27;62.72;95136.94;299395;220;63020;-65
2021/01/21 19:08:39;;;;;;;0.60;0.60;;;;;;;8.32;62.16;95120.53;299395;199;63005;-58
2021/01/21 19:13:40;;;;;;;0.60;0.60;;;;;;;8.29;61.86;95107.69;299395;253;63009;-58
2021/01/21 19:18:41;;;;;;;0.60;0.60;;;;;;;8.32;62.37;95101.63;299395;226;63004;-58
2021/01/21 19:23:42;;;;;;;0.60;0.60;;;;;;;8.18;62.62;95101.03;299395;214;63009;-57
2021/01/21 19:28:44;;;;;;;0.60;0.60;;;;;;;8.07;62.64;95106.75;299395;231;63005;-59
2021/01/21 19:33:44;;;;;;;0.60;0.60;;;;;;;8.06;62.84;95101.69;299395;228;63004;-59
2021/01/21 19:38:47;;;;;;;0.60;0.60;;;;;;;8.03;62.69;95110.41;299395;274;63004;-58
2021/01/21 19:43:48;;;;;;;0.55;0.55;;;;;;;8.01;62.92;95097.22;299395;230;63009;-55
2021/01/21 19:48:49;;;;;;;0.60;0.60;;;;;;;7.99;62.28;95090.56;299395;236;63011;-57
2021/01/21 19:53:51;;;;;;;0.60;0.60;;;;;;;8.06;62.28;95094.38;299395;196;63009;-57
2021/01/21 19:58:52;;;;;;;0.60;0.60;;;;;;;7.97;61.97;95074.66;299395;230;63005;-58
2021/01/21 20:03:53;;;;;;;0.60;0.60;;;;;;;8.05;62.31;95086.59;299395;235;63008;-58
2021/01/21 20:08:58;;;;;;;0.60;0.60;;;;;;;8.04;61.47;95098.50;299395;196;63004;-57
2021/01/21 20:13:59;;;;;;;;;;;;;;;8.08;61.52;95102.94;299996;982;6005;-61
2021/01/21 20:19:01;;;;;;;0.60;0.60;;;;;;;8.03;61.06;95092.31;299400;251;63008;-58
2021/01/21 20:24:03;;;;;;;0.60;0.60;;;;;;;8.12;61.32;95102.31;299395;203;63004;-59
2021/01/21 20:29:06;;;;;;;0.60;0.60;;;;;;;8.01;61.70;95105.31;299395;246;63009;-59
2021/01/21 20:34:08;;;;;;;0.60;0.60;;;;;;;7.97;61.58;95111.72;299395;206;63004;-59
2021/01/21 20:39:09;;;;;;;0.60;0.60;;;;;;;7.95;61.75;95120.12;299395;206;63009;-62
2021/01/21 20:44:11;;;;;;;0.60;0.60;;;;;;;8.04;61.61;95106.59;299395;198;63005;-64
2021/01/21 20:49:15;;;;;;;0.60;0.60;;;;;;;7.94;62.25;95107.75;299395;216;63008;-57
2021/01/21 20:54:16;;;;;;;0.60;0.60;;;;;;;7.87;62.33;95104.72;299417;213;63004;-58
2021/01/21 20:59:17;;;;;;;0.60;0.60;;;;;;;7.89;62.80;95089.00;299395;223;63009;-63
2021/01/21 21:04:18;;;;;;;0.60;0.60;;;;;;;7.86;63.46;95099.66;299395;297;63005;-63
2021/01/21 21:09:19;;;;;;;0.60;0.60;;;;;;;7.77;63.32;95102.34;299395;225;63009;-59
2021/01/21 21:14:24;;;;;;;0.60;0.60;;;;;;;7.80;64.36;95096.31;299395;235;63005;-58
2021/01/21 21:19:25;;;;;;;0.60;0.60;;;;;;;7.80;64.58;95106.31;299417;306;63009;-57
2021/01/21 21:24:26;;;;;;;0.60;0.60;;;;;;;7.59;66.18;95111.56;299395;223;63004;-62
2021/01/21 21:29:27;;;;;;;0.60;0.60;;;;;;;7.56;66.83;95117.59;299395;243;63005;-64
2021/01/21 21:34:28;;;;;;;0.60;0.60;;;;;;;7.50;67.65;95105.34;299395;209;63005;-58
2021/01/21 21:39:29;;;;;;;0.60;0.60;;;;;;;7.52;67.97;95097.75;299395;216;63009;-57
2021/01/21 21:44:32;;;;;;;0.60;0.60;;;;;;;7.49;69.21;95084.87;299395;215;63005;-57
2021/01/21 21:49:34;;;;;;;0.60;0.60;;;;;;;7.43;69.60;95070.75;299395;217;63007;-59
2021/01/21 21:54:36;;;;;;;0.60;0.60;;;;;;;7.44;70.80;95031.06;299395;198;63004;-55
2021/01/21 21:59:37;;;;;;;0.60;0.60;;;;;;;7.44;70.65;95031.84;299395;212;63009;-57
2021/01/21 22:04:41;;;;;;;0.60;0.60;;;;;;;7.50;70.99;95021.69;299395;301;63011;-57
2021/01/21 22:09:44;;;;;;;0.70;0.70;;;;;;;7.40;70.40;95012.00;299395;218;63009;-61
2021/01/21 22:14:45;;;;;;;0.60;0.60;;;;;;;7.58;69.43;95005.50;299395;209;63005;-63
2021/01/21 22:19:46;;;;;;;0.60;0.60;;;;;;;7.64;69.37;95027.69;299395;240;63009;-57
2021/01/21 22:24:47;;;;;;;0.80;0.80;;;;;;;7.64;69.23;95011.50;299395;266;63004;-56
2021/01/21 22:29:48;;;;;;;0.60;0.60;;;;;;;7.72;67.92;94998.00;299395;196;63018;-57
2021/01/21 22:34:51;;;;;;;0.60;0.60;;;;;;;7.77;67.23;95005.16;299395;197;63005;-57
2021/01/21 22:39:52;;;;;;;0.60;0.60;;;;;;;7.92;65.76;95007.34;299395;255;63017;-59
2021/01/21 22:44:53;;;;;;;0.60;0.60;;;;;;;7.95;64.89;95006.72;299395;205;63004;-58
2021/01/21 22:49:55;;;;;;;0.60;0.60;;;;;;;8.00;65.01;94986.81;299395;251;63009;-56
2021/01/21 22:54:56;;;;;;;0.60;0.60;;;;;;;7.98;64.34;94992.53;299395;198;63010;-56
2021/01/21 22:59:56;;;;;;;0.60;0.60;;;;;;;8.06;63.72;94967.41;299395;242;63009;-57
2021/01/21 23:04:59;;;;;;;0.60;0.60;;;;;;;8.13;62.91;94969.63;299395;252;63005;-56
2021/01/21 23:10:01;;;;;;;0.60;0.60;;;;;;;8.28;62.26;94961.00;299395;264;63008;-56
2021/01/21 23:15:03;;;;;;;0.60;0.60;;;;;;;8.30;62.27;94941.75;299395;207;63004;-57
2021/01/21 23:20:06;;;;;;;0.60;0.60;;;;;;;8.30;62.39;94957.97;299395;296;63009;-58
2021/01/21 23:25:08;;;;;;;0.60;0.60;;;;;;;8.37;62.45;94942.03;299395;202;63004;-58
2021/01/21 23:30:17;;;;;;;0.60;0.60;;;;;;;8.40;62.14;94922.47;299395;218;63009;-57
2021/01/21 23:35:18;;;;;;;0.60;0.60;;;;;;;8.40;61.81;94914.38;299395;208;63005;-56
2021/01/21 23:40:19;;;;;;;0.60;0.60;;;;;;;8.34;62.60;94950.78;299394;202;64009;-58
2021/01/21 23:45:20;;;;;;;0.60;0.60;;;;;;;8.44;62.50;94944.25;299395;271;63010;-66
2021/01/21 23:50:22;;;;;;;0.50;0.50;;;;;;;8.58;62.32;94947.50;299395;228;63009;-58
2021/01/21 23:55:23;;;;;;;0.60;0.60;;;;;;;8.59;62.56;94966.09;299395;239;63005;-67
